Fontainebleau, Mississippi
Current Conditions -  °F | °C
As of 11:58 PM on Monday 20 Oct 2014 (Local Time) from KBIX Reporting Station
Clear Clear  
Wind Chill: 62°   Ceiling: Unl
Heat Index: 62°   Visibility: 10mi
Dew Point: 53°   Wind: 5mph
Humidity: 71%   Direction: 40°NE
Pressure: 30.01"   Gusts: NA
Location:  30.418°N, 88.7558°W
Report Text: KBIX 210458Z AUTO 04004KT 10SM CLR 17/12 A3001 RMK AO2 SLP165 T01680116
Loading
Personal Weather Stations






























Interactive Weather Map
Tropical Storm Tracking
New forecast layout! Learn more

10-Day Weather Forecast

Advertisements
Track Severe Weather on mobile